Time;durP1;ratioP1;P1;durP2;ratioP2;P2;SDS_P1;SDS_P2;PMS_P1;PMS_P2;Temp;Humidity;BMP_temperature;BMP_pressure;BME280_temperature;BME280_humidity;BME280_pressure;Samples;Min_cycle;Max_cycle;Signal;HPM_P1;HPM_P2
2022/03/12 00:01:16;;;;;;;11.35;4.97;;;;;;;;;;5084383;28;20075;-76
2022/03/12 00:03:43;;;;;;;11.82;4.90;;;;;;;;;;5094347;28;20479;-76
2022/03/12 00:06:10;;;;;;;14.73;5.13;;;;;;;;;;5094733;28;20039;-75
2022/03/12 00:08:42;;;;;;;9.50;5.18;;;;;;;;;;5094794;28;20035;-75
2022/03/12 00:11:10;;;;;;;9.80;6.05;;;;;;;;;;5081588;28;20044;-75
2022/03/12 00:13:38;;;;;;;11.88;5.57;;;;;;;;;;5091161;28;20437;-75
2022/03/12 00:16:08;;;;;;;8.30;4.40;;;;;;;;;;5094604;28;20075;-75
2022/03/12 00:18:36;;;;;;;10.15;5.47;;;;;;;;;;5085019;28;20054;-74
2022/03/12 00:21:04;;;;;;;10.27;4.75;;;;;;;;;;5092578;28;20040;-75
2022/03/12 00:23:30;;;;;;;14.50;5.55;;;;;;;;;;5094099;28;20085;-76
2022/03/12 00:25:58;;;;;;;12.05;4.72;;;;;;;;;;5093746;28;20075;-75
2022/03/12 00:28:26;;;;;;;10.45;5.00;;;;;;;;;;5095003;28;20044;-74
2022/03/12 00:30:54;;;;;;;11.48;4.63;;;;;;;;;;5092413;28;20093;-76
2022/03/12 00:33:21;;;;;;;9.85;4.80;;;;;;;;;;5086797;28;20075;-75
2022/03/12 00:35:49;;;;;;;10.52;5.20;;;;;;;;;;5082966;28;20581;-77
2022/03/12 00:38:16;;;;;;;9.32;4.68;;;;;;;;;;5093275;28;20059;-75
2022/03/12 00:40:43;;;;;;;10.05;4.90;;;;;;;;;;5086870;28;20035;-75
2022/03/12 00:43:18;;;;;;;9.82;4.85;;;;;;;;;;5092902;28;20557;-76
2022/03/12 00:45:44;;;;;;;9.18;4.72;;;;;;;;;;5073374;28;20059;-75
2022/03/12 00:48:13;;;;;;;10.82;5.45;;;;;;;;;;5082135;28;20091;-76
2022/03/12 00:50:39;;;;;;;9.10;4.78;;;;;;;;;;5092796;28;20052;-75
2022/03/12 00:53:06;;;;;;;8.60;4.97;;;;;;;;;;5087367;28;20071;-75
2022/03/12 00:55:32;;;;;;;9.23;4.60;;;;;;;;;;5090893;28;20071;-75
2022/03/12 00:57:59;;;;;;;9.02;4.05;;;;;;;;;;5094902;28;20086;-75
2022/03/12 01:00:26;;;;;;;10.00;4.47;;;;;;;;;;5090944;28;20040;-77
2022/03/12 01:02:54;;;;;;;11.88;4.50;;;;;;;;;;5092513;28;20040;-78
2022/03/12 01:05:24;;;;;;;11.65;4.90;;;;;;;;;;5083925;28;20161;-75
2022/03/12 01:07:51;;;;;;;8.10;4.50;;;;;;;;;;5093496;28;20044;-75
2022/03/12 01:10:17;;;;;;;8.07;4.88;;;;;;;;;;5092339;28;20079;-79
2022/03/12 01:12:44;;;;;;;9.90;4.57;;;;;;;;;;5094171;28;20072;-75
2022/03/12 01:15:12;;;;;;;9.60;4.30;;;;;;;;;;5087252;28;20080;-75
2022/03/12 01:17:40;;;;;;;8.23;4.70;;;;;;;;;;5072571;28;20083;-77
2022/03/12 01:20:08;;;;;;;10.23;4.90;;;;;;;;;;5081459;28;20071;-75
2022/03/12 01:22:38;;;;;;;9.57;4.65;;;;;;;;;;5090184;28;20032;-75
2022/03/12 01:25:06;;;;;;;15.02;5.63;;;;;;;;;;5092468;28;20048;-75
2022/03/12 01:27:33;;;;;;;13.60;7.00;;;;;;;;;;5084947;28;20067;-75
2022/03/12 01:29:59;;;;;;;13.35;6.60;;;;;;;;;;5089877;28;20079;-76
2022/03/12 01:32:26;;;;;;;16.77;6.80;;;;;;;;;;5079865;28;20485;-75
2022/03/12 01:34:52;;;;;;;12.52;6.78;;;;;;;;;;5082376;28;20497;-79
2022/03/12 01:37:20;;;;;;;9.88;5.03;;;;;;;;;;5092284;28;20063;-75
2022/03/12 01:39:48;;;;;;;10.50;4.95;;;;;;;;;;5090856;28;20048;-75
2022/03/12 01:42:15;;;;;;;8.38;4.22;;;;;;;;;;5090935;28;20043;-75
2022/03/12 01:44:42;;;;;;;11.65;4.32;;;;;;;;;;5084781;28;20075;-75
2022/03/12 01:47:10;;;;;;;7.63;4.28;;;;;;;;;;5091443;28;20087;-75
2022/03/12 01:49:38;;;;;;;7.57;4.70;;;;;;;;;;5089576;28;20148;-75
2022/03/12 01:52:07;;;;;;;9.20;4.75;;;;;;;;;;5091609;28;20124;-76
2022/03/12 01:54:34;;;;;;;12.35;4.88;;;;;;;;;;5083479;28;20063;-77
2022/03/12 01:57:03;;;;;;;10.82;4.47;;;;;;;;;;5086178;28;20079;-76
2022/03/12 01:59:34;;;;;;;12.63;4.93;;;;;;;;;;5091256;28;20082;-76
2022/03/12 02:02:02;;;;;;;7.68;4.38;;;;;;;;;;5079165;28;20047;-77
2022/03/12 02:04:32;;;;;;;9.73;5.35;;;;;;;;;;5089586;28;20040;-75
2022/03/12 02:06:59;;;;;;;8.95;4.45;;;;;;;;;;5085411;28;20457;-75
2022/03/12 02:09:26;;;;;;;9.00;4.38;;;;;;;;;;5091290;28;20046;-75
2022/03/12 02:11:54;;;;;;;10.27;4.90;;;;;;;;;;5083856;28;20064;-77
2022/03/12 02:14:23;;;;;;;12.07;5.63;;;;;;;;;;5091087;28;20151;-75
2022/03/12 02:16:51;;;;;;;8.32;4.70;;;;;;;;;;5088457;28;20086;-75
2022/03/12 02:19:19;;;;;;;9.50;4.97;;;;;;;;;;5090338;28;20437;-76
2022/03/12 02:21:51;;;;;;;10.80;4.72;;;;;;;;;;5086949;28;20044;-75
2022/03/12 02:24:20;;;;;;;9.00;4.32;;;;;;;;;;5089462;28;20127;-75
2022/03/12 02:26:47;;;;;;;9.40;4.68;;;;;;;;;;5082996;28;20032;-75
2022/03/12 02:29:18;;;;;;;8.00;4.45;;;;;;;;;;5091398;28;20067;-76
2022/03/12 02:31:48;;;;;;;8.98;3.85;;;;;;;;;;5082758;28;20082;-76
2022/03/12 02:34:21;;;;;;;10.45;4.65;;;;;;;;;;5093224;28;20078;-75
2022/03/12 02:36:49;;;;;;;9.18;4.90;;;;;;;;;;5089709;28;20047;-75
2022/03/12 02:39:16;;;;;;;9.82;4.88;;;;;;;;;;5091929;28;20115;-75
2022/03/12 02:41:44;;;;;;;13.27;5.50;;;;;;;;;;5083218;28;20129;-75
2022/03/12 02:44:18;;;;;;;7.35;3.80;;;;;;;;;;5091298;28;20129;-75
2022/03/12 02:47:11;;;;;;;8.50;4.45;;;;;;;;;;5086662;28;20113;-76
2022/03/12 02:49:48;;;;;;;8.50;4.35;;;;;;;;;;5083443;28;20048;-75
2022/03/12 02:52:15;;;;;;;9.10;4.80;;;;;;;;;;5084660;28;20043;-76
2022/03/12 02:54:42;;;;;;;8.55;4.18;;;;;;;;;;5090785;28;20067;-78
2022/03/12 02:57:10;;;;;;;9.73;4.72;;;;;;;;;;5091255;28;20350;-75
2022/03/12 02:59:37;;;;;;;11.05;4.63;;;;;;;;;;5091740;28;20071;-75
2022/03/12 03:02:07;;;;;;;9.75;4.32;;;;;;;;;;5090896;28;20107;-75
2022/03/12 03:04:34;;;;;;;9.40;5.03;;;;;;;;;;5092258;28;20076;-75
2022/03/12 03:07:02;;;;;;;7.75;3.85;;;;;;;;;;5089853;28;20043;-76
2022/03/12 03:09:29;;;;;;;9.55;4.47;;;;;;;;;;5091460;28;20043;-77
2022/03/12 03:11:57;;;;;;;8.93;5.15;;;;;;;;;;5082819;28;20048;-76
2022/03/12 03:14:26;;;;;;;9.15;4.30;;;;;;;;;;5091436;28;20484;-76
2022/03/12 03:16:53;;;;;;;13.25;3.72;;;;;;;;;;5076530;28;20131;-76
2022/03/12 03:19:19;;;;;;;10.70;4.38;;;;;;;;;;5073622;28;20037;-76
2022/03/12 03:21:46;;;;;;;8.35;4.47;;;;;;;;;;5082918;28;20045;-77
2022/03/12 03:24:13;;;;;;;10.05;4.18;;;;;;;;;;5073107;28;20052;-76
2022/03/12 03:26:54;;;;;;;12.50;4.60;;;;;;;;;;5091948;28;20083;-77
2022/03/12 03:29:21;;;;;;;9.73;4.65;;;;;;;;;;5092886;28;20071;-75
2022/03/12 03:31:49;;;;;;;9.85;4.90;;;;;;;;;;5092780;28;20062;-75
2022/03/12 03:34:16;;;;;;;10.15;4.68;;;;;;;;;;5095767;28;20071;-75
2022/03/12 03:36:43;;;;;;;10.77;4.47;;;;;;;;;;5093456;28;20078;-76
2022/03/12 03:39:10;;;;;;;8.48;4.65;;;;;;;;;;5092406;28;20127;-78
2022/03/12 03:41:36;;;;;;;11.25;5.28;;;;;;;;;;5096206;28;20068;-75
2022/03/12 03:44:05;;;;;;;10.43;4.65;;;;;;;;;;5096147;28;20451;-77
2022/03/12 03:46:32;;;;;;;10.13;4.60;;;;;;;;;;5074287;28;20040;-75
2022/03/12 03:49:00;;;;;;;7.28;4.43;;;;;;;;;;5073249;28;20068;-75
2022/03/12 03:51:26;;;;;;;11.52;4.70;;;;;;;;;;5075088;28;20032;-77
2022/03/12 03:53:53;;;;;;;9.50;4.55;;;;;;;;;;5070445;28;20125;-75
2022/03/12 03:56:20;;;;;;;9.00;4.95;;;;;;;;;;5064378;28;20069;-75
2022/03/12 03:58:47;;;;;;;10.55;5.20;;;;;;;;;;5074330;28;20481;-77
2022/03/12 04:01:16;;;;;;;9.73;4.30;;;;;;;;;;5069460;28;20064;-75
2022/03/12 04:03:48;;;;;;;10.25;4.60;;;;;;;;;;5073732;28;20123;-76
2022/03/12 04:06:17;;;;;;;11.38;4.43;;;;;;;;;;5065575;28;20068;-76
2022/03/12 04:08:51;;;;;;;10.75;4.10;;;;;;;;;;5073849;28;20037;-77
2022/03/12 04:11:19;;;;;;;8.77;4.15;;;;;;;;;;5064716;28;20086;-75
2022/03/12 04:13:46;;;;;;;9.75;4.55;;;;;;;;;;5059453;28;20077;-76
2022/03/12 04:16:13;;;;;;;7.72;4.32;;;;;;;;;;5062093;28;20531;-75
2022/03/12 04:18:45;;;;;;;9.20;4.70;;;;;;;;;;5065423;28;20071;-76
2022/03/12 04:21:13;;;;;;;8.70;4.70;;;;;;;;;;5074134;28;20036;-76
2022/03/12 04:23:41;;;;;;;8.93;4.10;;;;;;;;;;5068013;28;20071;-77
2022/03/12 04:26:09;;;;;;;7.45;4.10;;;;;;;;;;5065285;28;20079;-76
2022/03/12 04:28:37;;;;;;;8.57;4.47;;;;;;;;;;5068776;28;20044;-74
2022/03/12 04:31:04;;;;;;;8.48;4.43;;;;;;;;;;5072241;28;20127;-77
2022/03/12 04:33:32;;;;;;;7.63;4.40;;;;;;;;;;5068590;28;20120;-77
2022/03/12 04:35:59;;;;;;;12.40;5.32;;;;;;;;;;5053851;28;20128;-78
2022/03/12 04:38:33;;;;;;;11.45;6.40;;;;;;;;;;5062566;28;20072;-80
2022/03/12 04:41:00;;;;;;;8.13;4.93;;;;;;;;;;5072989;28;20505;-78
2022/03/12 04:43:30;;;;;;;14.13;5.25;;;;;;;;;;5073027;28;20117;-77
2022/03/12 04:45:58;;;;;;;7.53;4.40;;;;;;;;;;5076002;28;20050;-78
2022/03/12 04:48:24;;;;;;;9.45;4.57;;;;;;;;;;5080659;28;20048;-78
2022/03/12 04:50:52;;;;;;;10.65;5.07;;;;;;;;;;5077789;28;20063;-77
2022/03/12 04:53:19;;;;;;;8.35;4.82;;;;;;;;;;5092136;28;20075;-78
2022/03/12 04:55:46;;;;;;;10.52;4.63;;;;;;;;;;5076694;28;20440;-77
2022/03/12 04:58:14;;;;;;;8.32;4.05;;;;;;;;;;5084390;28;20102;-78
2022/03/12 05:00:41;;;;;;;10.55;5.18;;;;;;;;;;5082420;28;20118;-79
2022/03/12 05:03:10;;;;;;;8.57;4.55;;;;;;;;;;5084417;28;20075;-78
2022/03/12 05:05:39;;;;;;;9.00;4.18;;;;;;;;;;5091705;28;20511;-77
2022/03/12 05:08:06;;;;;;;11.23;4.97;;;;;;;;;;5075460;28;20496;-77
2022/03/12 05:10:32;;;;;;;8.13;3.90;;;;;;;;;;5091095;28;20078;-79
2022/03/12 05:13:00;;;;;;;8.32;4.00;;;;;;;;;;5094015;28;20066;-77
2022/03/12 05:15:37;;;;;;;8.27;4.32;;;;;;;;;;5084126;28;20494;-77
2022/03/12 05:18:06;;;;;;;8.70;4.38;;;;;;;;;;5092720;28;20040;-77
2022/03/12 05:20:34;;;;;;;9.35;4.68;;;;;;;;;;5085622;28;20546;-77
2022/03/12 05:23:00;;;;;;;12.48;4.80;;;;;;;;;;5081884;28;20094;-78
2022/03/12 05:25:29;;;;;;;8.57;4.15;;;;;;;;;;5092706;28;20068;-77
2022/03/12 05:27:56;;;;;;;8.43;4.40;;;;;;;;;;5088522;28;20032;-78
2022/03/12 05:30:23;;;;;;;7.97;4.57;;;;;;;;;;5082257;28;20079;-77
2022/03/12 05:32:52;;;;;;;9.57;4.50;;;;;;;;;;5082809;28;20079;-77
2022/03/12 05:35:19;;;;;;;9.88;4.95;;;;;;;;;;5080808;28;20057;-78
2022/03/12 05:37:46;;;;;;;11.25;5.47;;;;;;;;;;5087559;28;20040;-77
2022/03/12 05:40:14;;;;;;;11.07;5.00;;;;;;;;;;5075079;28;20373;-77
2022/03/12 05:42:43;;;;;;;10.27;4.68;;;;;;;;;;5081326;28;20063;-75
2022/03/12 05:45:10;;;;;;;7.93;4.00;;;;;;;;;;5086414;28;20079;-78
2022/03/12 05:47:37;;;;;;;9.52;4.85;;;;;;;;;;5089716;28;20543;-76
2022/03/12 05:50:09;;;;;;;8.07;3.80;;;;;;;;;;5084612;28;20040;-78
2022/03/12 05:52:35;;;;;;;11.32;4.75;;;;;;;;;;5075757;28;20048;-77
2022/03/12 05:55:04;;;;;;;10.35;4.30;;;;;;;;;;5085755;28;20071;-77
2022/03/12 05:57:31;;;;;;;8.13;4.53;;;;;;;;;;5082927;28;20400;-77
2022/03/12 06:00:02;;;;;;;8.80;4.18;;;;;;;;;;5077188;28;20075;-77
2022/03/12 06:02:29;;;;;;;9.30;4.30;;;;;;;;;;5080859;28;20122;-76
2022/03/12 06:04:59;;;;;;;9.02;4.03;;;;;;;;;;5084573;28;20036;-75
2022/03/12 06:07:29;;;;;;;11.23;5.93;;;;;;;;;;5092454;28;20036;-75
2022/03/12 06:09:55;;;;;;;10.35;5.22;;;;;;;;;;5081356;28;20086;-75
2022/03/12 06:12:24;;;;;;;17.13;6.32;;;;;;;;;;5070966;28;20071;-75
2022/03/12 06:14:51;;;;;;;12.00;5.05;;;;;;;;;;5079743;28;20123;-78
2022/03/12 06:17:19;;;;;;;8.95;4.57;;;;;;;;;;5085696;28;20043;-77
2022/03/12 06:19:46;;;;;;;10.38;5.50;;;;;;;;;;5087609;28;20138;-78
2022/03/12 06:22:12;;;;;;;9.27;4.95;;;;;;;;;;5092684;28;20062;-78
2022/03/12 06:24:40;;;;;;;9.57;4.85;;;;;;;;;;5078263;28;20174;-76
2022/03/12 06:27:07;;;;;;;10.85;5.50;;;;;;;;;;5081970;28;20435;-79
2022/03/12 06:29:35;;;;;;;8.20;4.60;;;;;;;;;;5091178;28;20067;-77
2022/03/12 06:32:01;;;;;;;9.68;4.82;;;;;;;;;;5089581;28;20492;-77
2022/03/12 06:34:29;;;;;;;10.85;4.78;;;;;;;;;;5079563;28;20037;-76
2022/03/12 06:36:56;;;;;;;13.15;5.38;;;;;;;;;;5089520;28;20488;-76
2022/03/12 06:39:22;;;;;;;7.50;4.28;;;;;;;;;;5088155;28;20087;-76
2022/03/12 06:41:51;;;;;;;15.52;5.50;;;;;;;;;;5089738;28;20094;-76
2022/03/12 06:44:17;;;;;;;9.35;4.82;;;;;;;;;;5081204;28;20036;-76
2022/03/12 06:46:44;;;;;;;9.77;4.88;;;;;;;;;;5082697;28;20048;-75
2022/03/12 06:49:11;;;;;;;12.85;6.00;;;;;;;;;;5081235;28;20052;-75
2022/03/12 06:51:38;;;;;;;11.95;5.20;;;;;;;;;;5084779;28;20056;-76
2022/03/12 06:54:05;;;;;;;8.00;4.63;;;;;;;;;;5083882;28;20099;-76
2022/03/12 06:56:34;;;;;;;10.40;6.18;;;;;;;;;;5089587;28;20056;-75
2022/03/12 06:59:02;;;;;;;9.23;4.72;;;;;;;;;;5089012;28;20480;-75
2022/03/12 07:01:28;;;;;;;10.95;5.63;;;;;;;;;;5090794;28;20136;-75
2022/03/12 07:03:55;;;;;;;9.38;5.35;;;;;;;;;;5078314;28;20052;-75
2022/03/12 07:06:21;;;;;;;12.20;6.65;;;;;;;;;;5090662;28;20119;-77
2022/03/12 07:08:49;;;;;;;9.38;4.82;;;;;;;;;;5083896;28;20509;-76
2022/03/12 07:11:17;;;;;;;9.48;5.20;;;;;;;;;;5096150;28;20097;-75
2022/03/12 07:13:44;;;;;;;11.02;5.13;;;;;;;;;;5093489;28;20044;-75
2022/03/12 07:16:12;;;;;;;8.40;4.43;;;;;;;;;;5091376;28;20047;-75
2022/03/12 07:18:39;;;;;;;11.52;5.03;;;;;;;;;;5086654;28;20453;-75
2022/03/12 07:21:06;;;;;;;8.95;5.38;;;;;;;;;;5089404;28;20369;-76
2022/03/12 07:23:33;;;;;;;11.65;5.55;;;;;;;;;;5083909;28;20067;-76
2022/03/12 07:25:59;;;;;;;9.43;5.03;;;;;;;;;;5086621;28;20634;-76
2022/03/12 07:28:27;;;;;;;10.77;5.32;;;;;;;;;;5095903;28;20067;-77
2022/03/12 07:30:54;;;;;;;8.93;5.65;;;;;;;;;;5090290;28;20051;-78
2022/03/12 07:33:22;;;;;;;11.65;5.93;;;;;;;;;;5084491;28;20514;-79
2022/03/12 07:35:48;;;;;;;9.57;5.20;;;;;;;;;;5089596;28;20040;-76
2022/03/12 07:38:15;;;;;;;9.50;4.47;;;;;;;;;;5082678;28;20467;-78
2022/03/12 07:40:41;;;;;;;10.18;4.63;;;;;;;;;;5082005;28;20083;-76
2022/03/12 07:43:08;;;;;;;10.48;5.63;;;;;;;;;;5091668;28;20071;-78
2022/03/12 07:45:34;;;;;;;13.68;6.45;;;;;;;;;;5095665;28;20071;-79
2022/03/12 07:48:01;;;;;;;10.32;5.70;;;;;;;;;;5075535;28;20098;-76
2022/03/12 07:50:29;;;;;;;9.70;5.32;;;;;;;;;;5072270;28;20046;-79
2022/03/12 07:52:57;;;;;;;10.38;5.80;;;;;;;;;;5072928;28;20072;-76
2022/03/12 07:55:24;;;;;;;9.82;5.47;;;;;;;;;;5073088;28;20041;-76
2022/03/12 07:57:51;;;;;;;10.20;5.57;;;;;;;;;;5072197;28;20075;-76
2022/03/12 08:00:18;;;;;;;13.88;6.13;;;;;;;;;;5064997;28;20120;-76
2022/03/12 08:02:46;;;;;;;11.88;7.32;;;;;;;;;;5055494;28;20069;-75
2022/03/12 08:05:16;;;;;;;11.18;5.50;;;;;;;;;;5072513;28;20071;-76
2022/03/12 08:07:44;;;;;;;14.40;6.70;;;;;;;;;;5063126;28;20041;-75
2022/03/12 08:10:10;;;;;;;10.02;5.93;;;;;;;;;;5070971;28;20044;-78
2022/03/12 08:12:38;;;;;;;10.82;6.13;;;;;;;;;;5073920;28;20064;-79
2022/03/12 08:15:05;;;;;;;11.95;6.50;;;;;;;;;;5073333;28;20449;-76
2022/03/12 08:17:32;;;;;;;11.82;6.50;;;;;;;;;;5071321;28;20089;-77
2022/03/12 08:19:59;;;;;;;12.77;6.47;;;;;;;;;;5079749;28;20044;-76
2022/03/12 08:22:26;;;;;;;12.95;6.82;;;;;;;;;;5067464;28;20068;-76
2022/03/12 08:24:54;;;;;;;8.90;5.75;;;;;;;;;;5065846;28;20047;-76
2022/03/12 08:27:21;;;;;;;11.23;6.47;;;;;;;;;;5066592;28;20050;-76
2022/03/12 08:29:47;;;;;;;13.60;6.05;;;;;;;;;;5065072;28;20072;-77
2022/03/12 08:32:14;;;;;;;13.45;6.55;;;;;;;;;;5071910;28;20109;-76
2022/03/12 08:34:41;;;;;;;12.98;6.25;;;;;;;;;;5073929;28;20048;-76
2022/03/12 08:37:08;;;;;;;12.65;6.20;;;;;;;;;;5065322;28;20041;-77
2022/03/12 08:39:35;;;;;;;13.52;6.38;;;;;;;;;;5071210;28;20106;-76
2022/03/12 08:42:03;;;;;;;11.23;6.75;;;;;;;;;;5063781;28;20502;-79
2022/03/12 08:44:30;;;;;;;11.10;5.82;;;;;;;;;;5055425;28;20041;-76
2022/03/12 08:46:56;;;;;;;14.90;7.63;;;;;;;;;;5074952;28;20079;-75
2022/03/12 08:49:23;;;;;;;12.73;6.82;;;;;;;;;;5081919;28;20064;-76
2022/03/12 08:51:50;;;;;;;12.77;6.55;;;;;;;;;;5079658;28;20047;-76
2022/03/12 08:54:17;;;;;;;10.90;6.60;;;;;;;;;;5094185;28;20072;-76
2022/03/12 08:56:44;;;;;;;16.27;8.00;;;;;;;;;;5090839;28;20075;-76
2022/03/12 08:59:12;;;;;;;11.77;6.78;;;;;;;;;;5086011;28;20040;-76
2022/03/12 09:01:39;;;;;;;18.13;7.60;;;;;;;;;;5084242;28;20148;-77
2022/03/12 09:04:05;;;;;;;11.65;7.18;;;;;;;;;;5085523;28;20472;-76
2022/03/12 09:06:32;;;;;;;13.80;8.10;;;;;;;;;;5088933;28;20083;-76
2022/03/12 09:08:59;;;;;;;12.05;7.45;;;;;;;;;;5082128;28;20048;-76
2022/03/12 09:11:25;;;;;;;18.40;7.80;;;;;;;;;;5086581;28;20058;-76
2022/03/12 09:13:53;;;;;;;12.50;7.57;;;;;;;;;;5091927;28;20075;-76
2022/03/12 09:16:22;;;;;;;11.77;7.10;;;;;;;;;;5079815;28;20049;-77
2022/03/12 09:18:50;;;;;;;15.55;8.20;;;;;;;;;;5090009;28;20481;-77
2022/03/12 09:21:17;;;;;;;14.27;7.50;;;;;;;;;;5090547;28;20146;-77
2022/03/12 09:23:44;;;;;;;11.18;6.88;;;;;;;;;;5082455;28;20132;-77
2022/03/12 09:26:12;;;;;;;10.45;7.20;;;;;;;;;;5083127;28;20112;-77
2022/03/12 09:28:38;;;;;;;12.30;7.32;;;;;;;;;;5085732;28;20090;-77
2022/03/12 09:31:06;;;;;;;13.18;7.43;;;;;;;;;;5089218;28;20048;-78
2022/03/12 09:33:35;;;;;;;12.70;7.50;;;;;;;;;;5086258;28;20085;-78
2022/03/12 09:36:03;;;;;;;11.18;7.78;;;;;;;;;;5081622;28;20046;-77
2022/03/12 09:38:30;;;;;;;14.50;7.35;;;;;;;;;;5085954;28;20127;-77
2022/03/12 09:40:56;;;;;;;11.10;7.68;;;;;;;;;;5091270;28;20431;-77
2022/03/12 09:43:23;;;;;;;15.70;8.27;;;;;;;;;;5091683;28;20059;-77
2022/03/12 09:45:49;;;;;;;16.25;8.57;;;;;;;;;;5092112;28;20425;-77
2022/03/12 09:48:16;;;;;;;12.95;7.78;;;;;;;;;;5089788;28;20169;-78
2022/03/12 09:50:44;;;;;;;13.80;8.60;;;;;;;;;;5084750;28;20044;-77
2022/03/12 09:53:11;;;;;;;12.32;7.40;;;;;;;;;;5081169;28;20131;-77
2022/03/12 09:55:38;;;;;;;13.70;9.30;;;;;;;;;;5086927;28;20387;-77
2022/03/12 09:58:05;;;;;;;11.50;7.88;;;;;;;;;;5093407;28;20040;-77
2022/03/12 10:00:32;;;;;;;12.10;7.45;;;;;;;;;;5092516;28;20078;-77
2022/03/12 10:02:58;;;;;;;13.52;7.47;;;;;;;;;;5091772;28;20101;-77
2022/03/12 10:05:28;;;;;;;12.52;7.50;;;;;;;;;;5086397;28;20432;-77
2022/03/12 10:07:57;;;;;;;15.13;8.18;;;;;;;;;;5091363;28;20079;-77
2022/03/12 10:10:25;;;;;;;14.15;8.65;;;;;;;;;;5089141;28;20032;-77
2022/03/12 10:12:52;;;;;;;13.00;8.38;;;;;;;;;;5087653;28;20048;-76
2022/03/12 10:15:19;;;;;;;13.38;8.38;;;;;;;;;;5088330;28;20047;-76
2022/03/12 10:17:47;;;;;;;14.32;8.70;;;;;;;;;;5073104;28;20040;-77
2022/03/12 10:20:13;;;;;;;11.45;8.55;;;;;;;;;;5091525;28;20047;-77
2022/03/12 10:22:41;;;;;;;13.60;7.93;;;;;;;;;;5087534;28;21396;-77
2022/03/12 10:25:12;;;;;;;13.88;8.25;;;;;;;;;;5074771;28;20086;-76
2022/03/12 10:27:39;;;;;;;13.73;8.20;;;;;;;;;;5093722;28;20533;-77
2022/03/12 10:30:07;;;;;;;15.30;8.52;;;;;;;;;;5087301;28;20048;-77
2022/03/12 10:32:41;;;;;;;12.60;8.88;;;;;;;;;;5090880;28;20462;-78
2022/03/12 10:35:09;;;;;;;12.30;8.13;;;;;;;;;;5089626;28;20040;-77
2022/03/12 10:37:36;;;;;;;14.35;8.50;;;;;;;;;;5081722;28;20080;-78
2022/03/12 10:40:10;;;;;;;13.75;8.05;;;;;;;;;;5090362;28;20063;-78
2022/03/12 10:42:39;;;;;;;12.70;7.53;;;;;;;;;;5091897;28;20121;-78
2022/03/12 10:45:08;;;;;;;15.40;8.38;;;;;;;;;;5085480;28;20075;-77
2022/03/12 10:47:50;;;;;;;12.57;7.95;;;;;;;;;;5090717;28;20487;-78
2022/03/12 10:50:20;;;;;;;13.63;8.35;;;;;;;;;;5084477;28;20102;-78
2022/03/12 10:52:49;;;;;;;13.70;8.15;;;;;;;;;;5081958;28;20072;-78
2022/03/12 10:55:23;;;;;;;14.18;8.98;;;;;;;;;;5079340;28;20040;-78
2022/03/12 10:57:57;;;;;;;13.95;9.30;;;;;;;;;;5090351;28;20048;-77
2022/03/12 11:00:24;;;;;;;11.80;7.75;;;;;;;;;;5071288;28;20090;-78
2022/03/12 11:02:54;;;;;;;13.18;8.90;;;;;;;;;;5090366;28;20098;-76
2022/03/12 11:05:27;;;;;;;14.80;9.15;;;;;;;;;;5078258;28;20044;-76
2022/03/12 11:08:11;;;;;;;10.95;7.68;;;;;;;;;;5072460;28;20076;-77
2022/03/12 11:10:44;;;;;;;17.88;9.68;;;;;;;;;;5083829;28;20044;-76
2022/03/12 11:13:12;;;;;;;14.85;8.50;;;;;;;;;;5087382;28;20450;-77
2022/03/12 11:15:40;;;;;;;14.07;9.60;;;;;;;;;;5076452;28;20044;-77
2022/03/12 11:18:08;;;;;;;14.55;9.27;;;;;;;;;;5088647;28;20040;-78
2022/03/12 11:20:36;;;;;;;16.40;10.20;;;;;;;;;;5092513;28;20044;-77
2022/03/12 11:23:08;;;;;;;18.27;9.68;;;;;;;;;;5089465;28;20036;-76
2022/03/12 11:25:36;;;;;;;19.02;9.73;;;;;;;;;;5090458;28;20076;-76
2022/03/12 11:28:18;;;;;;;25.17;10.55;;;;;;;;;;5089086;28;20110;-77
2022/03/12 11:30:45;;;;;;;20.27;11.48;;;;;;;;;;5081683;28;20036;-76
2022/03/12 11:33:12;;;;;;;18.52;11.05;;;;;;;;;;5089663;28;20080;-76
2022/03/12 11:35:39;;;;;;;16.80;9.90;;;;;;;;;;5089167;28;20044;-76
2022/03/12 11:38:13;;;;;;;14.60;10.80;;;;;;;;;;5087546;28;20048;-76
2022/03/12 11:40:44;;;;;;;14.18;9.43;;;;;;;;;;5075115;28;20126;-76
2022/03/12 11:43:26;;;;;;;14.75;10.07;;;;;;;;;;5089773;28;20085;-76
2022/03/12 11:45:55;;;;;;;15.25;9.98;;;;;;;;;;5079093;28;20040;-75
2022/03/12 11:48:29;;;;;;;16.52;12.60;;;;;;;;;;5092727;28;20388;-75
2022/03/12 11:50:56;;;;;;;16.75;10.45;;;;;;;;;;5085261;28;20051;-76
2022/03/12 11:53:22;;;;;;;13.98;9.05;;;;;;;;;;5090646;28;20448;-76
2022/03/12 11:55:51;;;;;;;15.15;9.57;;;;;;;;;;5082766;28;20101;-76
2022/03/12 11:58:18;;;;;;;17.27;10.05;;;;;;;;;;5088430;28;20040;-76
2022/03/12 12:00:48;;;;;;;15.07;9.90;;;;;;;;;;5090701;28;20086;-76
2022/03/12 12:03:15;;;;;;;19.80;9.95;;;;;;;;;;5092789;28;20361;-77
2022/03/12 12:05:43;;;;;;;16.92;10.18;;;;;;;;;;5089112;28;20530;-76
2022/03/12 12:08:12;;;;;;;17.63;10.98;;;;;;;;;;5092054;28;20486;-78
2022/03/12 12:10:42;;;;;;;15.93;9.68;;;;;;;;;;5090175;28;20089;-77
2022/03/12 12:13:09;;;;;;;15.98;8.95;;;;;;;;;;5091938;28;20047;-77
2022/03/12 12:15:36;;;;;;;14.30;9.20;;;;;;;;;;5088962;28;20082;-78
2022/03/12 12:18:05;;;;;;;14.23;8.90;;;;;;;;;;5092036;28;20078;-77
2022/03/12 12:20:31;;;;;;;18.92;9.93;;;;;;;;;;5092033;28;20093;-76
2022/03/12 12:22:59;;;;;;;12.35;8.48;;;;;;;;;;5089789;28;20365;-76
2022/03/12 12:25:26;;;;;;;15.48;9.55;;;;;;;;;;5091119;28;20036;-77
2022/03/12 12:27:54;;;;;;;12.23;8.40;;;;;;;;;;5091935;28;20040;-76
2022/03/12 12:30:38;;;;;;;14.65;9.10;;;;;;;;;;5089701;28;20071;-77
2022/03/12 12:33:14;;;;;;;16.30;9.25;;;;;;;;;;5090316;28;20050;-76
2022/03/12 12:35:40;;;;;;;15.27;9.32;;;;;;;;;;5096976;28;20093;-76
2022/03/12 12:38:09;;;;;;;13.02;9.05;;;;;;;;;;5096943;28;20040;-76
2022/03/12 12:40:43;;;;;;;16.38;10.05;;;;;;;;;;5095941;28;20040;-76
2022/03/12 12:43:13;;;;;;;15.07;8.50;;;;;;;;;;5095725;28;20504;-76
2022/03/12 12:46:09;;;;;;;14.02;8.63;;;;;;;;;;5096937;28;20044;-75
2022/03/12 12:48:40;;;;;;;15.95;9.25;;;;;;;;;;5075814;28;20385;-75
2022/03/12 12:51:12;;;;;;;16.27;10.00;;;;;;;;;;5075587;28;20412;-75
2022/03/12 12:53:40;;;;;;;13.18;8.77;;;;;;;;;;5076335;28;20072;-75
2022/03/12 12:56:31;;;;;;;14.48;8.93;;;;;;;;;;5076426;28;20095;-75
2022/03/12 12:59:10;;;;;;;14.48;9.98;;;;;;;;;;5075890;28;20479;-75
2022/03/12 13:01:52;;;;;;;14.13;8.50;;;;;;;;;;5088820;28;20075;-75
2022/03/12 13:04:46;;;;;;;16.58;10.85;;;;;;;;;;5095363;28;20044;-75
2022/03/12 13:07:20;;;;;;;18.70;9.60;;;;;;;;;;5083926;28;20082;-75
2022/03/12 13:09:58;;;;;;;18.88;10.68;;;;;;;;;;5093320;28;20068;-75
2022/03/12 13:12:39;;;;;;;14.63;9.88;;;;;;;;;;5096304;28;20040;-75
2022/03/12 13:15:13;;;;;;;16.80;10.10;;;;;;;;;;5096594;28;20083;-75
2022/03/12 13:17:40;;;;;;;15.57;10.30;;;;;;;;;;5095157;28;20128;-76
2022/03/12 13:20:42;;;;;;;14.77;10.95;;;;;;;;;;5093706;28;20043;-75
2022/03/12 13:23:09;;;;;;;18.77;11.55;;;;;;;;;;5075758;28;20128;-75
2022/03/12 13:25:47;;;;;;;15.95;10.75;;;;;;;;;;5075511;28;20087;-75
2022/03/12 13:28:35;;;;;;;17.98;10.60;;;;;;;;;;5093174;28;20072;-76
2022/03/12 13:31:03;;;;;;;16.27;10.43;;;;;;;;;;5096023;28;20048;-75
2022/03/12 13:33:29;;;;;;;17.98;9.13;;;;;;;;;;5095966;28;20436;-77
2022/03/12 13:35:57;;;;;;;13.70;9.10;;;;;;;;;;5093162;28;20055;-77
2022/03/12 13:38:25;;;;;;;16.88;9.65;;;;;;;;;;5095698;28;20067;-76
2022/03/12 13:40:51;;;;;;;12.18;8.93;;;;;;;;;;5095463;28;20046;-76
2022/03/12 13:43:18;;;;;;;14.15;8.73;;;;;;;;;;5091192;28;20068;-76
2022/03/12 13:45:46;;;;;;;12.73;8.85;;;;;;;;;;5094965;28;20058;-76
2022/03/12 13:48:13;;;;;;;15.75;10.38;;;;;;;;;;5092511;28;20058;-77
2022/03/12 13:50:39;;;;;;;14.65;9.93;;;;;;;;;;5095713;28;20040;-77
2022/03/12 13:53:07;;;;;;;14.73;9.48;;;;;;;;;;5094458;28;20131;-77
2022/03/12 13:55:35;;;;;;;17.27;10.68;;;;;;;;;;5095450;28;20040;-77
2022/03/12 13:58:04;;;;;;;16.42;10.45;;;;;;;;;;5092534;28;20353;-77
2022/03/12 14:00:35;;;;;;;15.88;9.90;;;;;;;;;;5094359;28;20499;-78
2022/03/12 14:03:01;;;;;;;15.20;9.48;;;;;;;;;;5095361;28;20044;-76
2022/03/12 14:05:30;;;;;;;15.38;10.80;;;;;;;;;;5095471;28;20040;-76
2022/03/12 14:07:59;;;;;;;14.77;10.00;;;;;;;;;;5091985;28;20074;-76
2022/03/12 14:10:28;;;;;;;16.17;9.73;;;;;;;;;;5093919;28;20083;-76
2022/03/12 14:12:59;;;;;;;17.55;9.85;;;;;;;;;;5091202;28;20472;-77
2022/03/12 14:15:27;;;;;;;14.43;10.38;;;;;;;;;;5092255;28;20396;-77
2022/03/12 14:17:54;;;;;;;13.98;9.50;;;;;;;;;;5091931;28;20072;-77
2022/03/12 14:20:20;;;;;;;14.65;10.57;;;;;;;;;;5092325;28;20403;-77
2022/03/12 14:22:51;;;;;;;16.77;9.77;;;;;;;;;;5091717;28;20086;-77
2022/03/12 14:25:27;;;;;;;17.95;10.40;;;;;;;;;;5090723;28;20036;-77
2022/03/12 14:27:54;;;;;;;;;;;;;;;;;;5091932;28;20036;-78
2022/03/12 14:30:21;;;;;;;14.15;10.57;;;;;;;;;;5095157;28;19916;-77
2022/03/12 14:32:49;;;;;;;16.23;11.07;;;;;;;;;;5096713;28;20101;-77
2022/03/12 14:35:15;;;;;;;15.50;10.65;;;;;;;;;;5095051;28;20059;-78
2022/03/12 14:37:43;;;;;;;17.75;10.65;;;;;;;;;;5093150;28;20511;-78
2022/03/12 14:40:10;;;;;;;16.10;10.27;;;;;;;;;;5095987;28;20036;-78
2022/03/12 14:42:40;;;;;;;16.20;10.60;;;;;;;;;;5076427;28;20469;-78